Time;durP1;ratioP1;P1;durP2;ratioP2;P2;SDS_P1;SDS_P2;PMS_P1;PMS_P2;Temp;Humidity;BMP_temperature;BMP_pressure;BME280_temperature;BME280_humidity;BME280_pressure;Samples;Min_cycle;Max_cycle;Signal;HPM_P1;HPM_P2
2021/03/20 00:04:17;;;;;;;41.25;19.45;;;;;;;-0.05;100.00;99387.70;4368463;80;42873;-71
2021/03/20 00:10:23;;;;;;;41.65;19.75;;;;;;;-0.18;100.00;99387.61;4395830;80;43244;-71
2021/03/20 00:16:26;;;;;;;22.50;12.75;;;;;;;-0.74;100.00;99394.84;4376186;81;28554;-73
2021/03/20 00:22:30;;;;;;;19.77;11.30;;;;;;;-0.89;100.00;99403.75;4381110;81;44475;-73
2021/03/20 00:28:33;;;;;;;19.32;10.08;;;;;;;-0.98;100.00;99402.84;4395461;80;44423;-74
2021/03/20 00:34:36;;;;;;;15.53;9.85;;;;;;;-0.66;100.00;99404.17;4290114;81;44192;-73
2021/03/20 00:40:38;;;;;;;15.38;9.15;;;;;;;-0.65;100.00;99403.67;4320443;81;43980;-73
2021/03/20 00:46:41;;;;;;;15.65;9.85;;;;;;;-0.77;100.00;99407.84;4387132;80;44210;-75
2021/03/20 00:52:43;;;;;;;16.20;9.63;;;;;;;-0.83;100.00;99412.41;4302019;81;43908;-71
2021/03/20 00:58:45;;;;;;;14.03;8.85;;;;;;;-0.80;100.00;99407.30;4304919;81;43975;-72
2021/03/20 01:04:47;;;;;;;11.15;7.08;;;;;;;-0.96;100.00;99415.39;4302739;81;43245;-72
2021/03/20 01:10:51;;;;;;;11.90;6.37;;;;;;;-1.03;100.00;99409.03;4284195;81;43209;-72
2021/03/20 01:16:54;;;;;;;10.05;5.60;;;;;;;-0.87;100.00;99417.62;4374856;80;42987;-72
2021/03/20 01:22:56;;;;;;;10.23;5.95;;;;;;;-0.87;100.00;99413.19;4360772;80;43288;-72
2021/03/20 01:28:58;;;;;;;8.95;5.05;;;;;;;-1.08;100.00;99421.34;4370873;81;42692;-73
2021/03/20 01:35:00;;;;;;;8.75;4.58;;;;;;;-1.03;100.00;99422.23;4348669;81;42709;-73
2021/03/20 01:41:08;;;;;;;8.90;4.35;;;;;;;-1.20;100.00;99422.02;4393153;80;42692;-72
2021/03/20 01:47:15;;;;;;;7.80;3.72;;;;;;;-1.00;100.00;99422.77;4366025;80;42717;-72
2021/03/20 01:53:38;;;;;;;6.35;4.10;;;;;;;-0.91;100.00;99421.55;4327129;82;42636;-73
2021/03/20 01:59:40;;;;;;;7.80;4.78;;;;;;;-0.97;100.00;99425.61;4335281;80;42697;-73
2021/03/20 02:05:44;;;;;;;7.45;3.87;;;;;;;-1.10;100.00;99435.18;4330298;82;42693;-73
2021/03/20 02:11:54;;;;;;;6.67;4.17;;;;;;;-1.04;100.00;99435.92;4315520;80;42729;-74
2021/03/20 02:18:17;;;;;;;9.55;4.67;;;;;;;-1.51;100.00;99442.06;4317058;80;42716;-74
2021/03/20 02:24:47;;;;;;;8.20;4.50;;;;;;;-1.60;100.00;99448.19;4318293;82;42720;-74
2021/03/20 02:31:13;;;;;;;7.72;5.05;;;;;;;-1.21;100.00;99452.52;4317607;82;42772;-74
2021/03/20 02:37:23;;;;;;;8.80;4.72;;;;;;;-1.21;100.00;99456.48;4357628;81;42743;-75
2021/03/20 02:44:05;;;;;;;7.15;4.17;;;;;;;-1.48;100.00;99452.80;4343977;81;42724;-73
2021/03/20 02:50:12;;;;;;;6.87;4.50;;;;;;;-1.41;100.00;99460.49;4367951;80;42767;-73
2021/03/20 02:56:26;;;;;;;10.30;5.40;;;;;;;-1.31;100.00;99462.61;4340952;80;43282;-73
2021/03/20 03:02:31;;;;;;;7.65;4.03;;;;;;;-1.77;100.00;99475.61;4372043;81;42738;-73
2021/03/20 03:08:42;;;;;;;8.23;4.67;;;;;;;-2.01;100.00;99485.26;4344844;80;28544;-73
2021/03/20 03:15:01;;;;;;;8.00;4.55;;;;;;;-1.71;100.00;99492.20;4356604;81;42782;-73
2021/03/20 03:21:07;;;;;;;8.70;4.25;;;;;;;-1.50;100.00;99511.45;4363446;81;42715;-73
2021/03/20 03:27:14;;;;;;;9.58;4.35;;;;;;;-1.87;100.00;99511.69;4365887;81;28595;-72
2021/03/20 03:33:31;;;;;;;8.78;3.62;;;;;;;-2.10;100.00;99523.82;4346164;81;42783;-72
2021/03/20 03:39:53;;;;;;;7.87;3.50;;;;;;;-2.17;100.00;99527.96;4363022;80;42692;-72
2021/03/20 03:45:55;;;;;;;8.68;3.52;;;;;;;-1.83;100.00;99531.05;4378682;80;42723;-72
2021/03/20 03:52:01;;;;;;;6.10;3.30;;;;;;;-2.42;100.00;99536.22;4387805;81;28626;-73
2021/03/20 03:58:46;;;;;;;6.37;3.55;;;;;;;-2.08;100.00;99542.95;4389740;80;41821;-72
2021/03/20 04:05:09;;;;;;;5.28;2.65;;;;;;;-2.28;100.00;99557.41;4394485;81;43409;-72
2021/03/20 04:11:32;;;;;;;9.13;3.47;;;;;;;-2.46;100.00;99556.38;4383684;80;42743;-72
2021/03/20 04:18:00;;;;;;;7.10;2.98;;;;;;;-2.48;100.00;99571.02;4364221;80;42168;-72
2021/03/20 04:24:08;;;;;;;7.37;3.10;;;;;;;-2.55;100.00;99583.03;4383358;80;42508;-72
2021/03/20 04:30:18;;;;;;;6.37;3.33;;;;;;;-2.60;100.00;99589.16;4381553;81;41875;-73
2021/03/20 04:36:38;;;;;;;4.40;2.40;;;;;;;-2.53;100.00;99591.63;4367501;80;43418;-72
2021/03/20 04:42:41;;;;;;;7.45;3.05;;;;;;;-2.41;100.00;99599.78;4359662;81;41883;-72
2021/03/20 04:48:49;;;;;;;7.87;2.98;;;;;;;-2.64;100.00;99608.37;4344254;82;42539;-72
2021/03/20 04:54:51;;;;;;;8.23;2.92;;;;;;;-2.82;100.00;99620.81;4339485;80;42689;-72
2021/03/20 05:01:04;;;;;;;5.17;2.50;;;;;;;-2.74;100.00;99629.86;4364380;81;43446;-72
2021/03/20 05:07:08;;;;;;;6.70;2.90;;;;;;;-2.46;100.00;99641.96;4339931;81;41849;-72
2021/03/20 05:13:48;;;;;;;7.70;3.15;;;;;;;-2.12;100.00;99643.02;4348640;81;42536;-72
2021/03/20 05:19:50;;;;;;;8.75;3.08;;;;;;;-2.14;100.00;99648.88;4367903;81;42697;-72
2021/03/20 05:25:52;;;;;;;8.63;2.83;;;;;;;-2.09;100.00;99663.81;4365738;81;42692;-73
2021/03/20 05:31:56;;;;;;;6.65;2.72;;;;;;;-2.15;100.00;99677.52;4363256;81;41888;-73
2021/03/20 05:37:59;;;;;;;6.22;1.95;;;;;;;-2.28;100.00;99676.44;4352870;80;43391;-72
2021/03/20 05:44:22;;;;;;;6.58;2.50;;;;;;;-2.36;100.00;99681.53;4356271;80;43435;-72
2021/03/20 05:50:54;;;;;;;5.85;2.30;;;;;;;-2.14;100.00;99693.20;4332760;80;43456;-73
2021/03/20 05:57:24;;;;;;;7.83;2.90;;;;;;;-2.04;100.00;99698.49;4359889;80;42600;-73
2021/03/20 06:04:11;;;;;;;9.33;2.90;;;;;;;-2.49;100.00;99712.02;4342743;80;42715;-74
2021/03/20 06:10:41;;;;;;;9.80;3.08;;;;;;;-2.27;100.00;99714.48;4389352;80;42973;-74
2021/03/20 06:17:13;;;;;;;6.58;2.60;;;;;;;-2.20;100.00;99720.56;4373907;80;41871;-74
2021/03/20 06:23:41;;;;;;;7.45;2.77;;;;;;;-2.03;100.00;99724.38;4387632;80;42168;-73
2021/03/20 06:30:00;;;;;;;8.40;2.67;;;;;;;-1.87;100.00;99726.52;4349908;80;42741;-74
2021/03/20 06:36:23;;;;;;;7.83;2.80;;;;;;;-2.29;100.00;99741.45;4385829;79;75525;-73
2021/03/20 06:42:31;;;;;;;9.18;3.17;;;;;;;-2.66;100.00;99745.39;4314086;81;42954;-76
2021/03/20 06:48:33;;;;;;;8.10;3.45;;;;;;;-2.40;100.00;99754.70;4315126;80;42693;-76
2021/03/20 06:54:36;;;;;;;9.08;3.22;;;;;;;-2.72;100.00;99765.63;4337160;81;42724;-76
2021/03/20 07:00:39;;;;;;;10.15;3.45;;;;;;;-2.80;100.00;99766.77;4315039;81;43230;-74
2021/03/20 07:07:00;;;;;;;9.68;3.52;;;;;;;-2.75;100.00;99770.34;4324705;81;43252;-77
2021/03/20 07:13:16;;;;;;;9.88;3.70;;;;;;;-2.48;100.00;99767.67;4296701;80;42749;-81
2021/03/20 07:19:21;;;;;;;6.67;2.95;;;;;;;-2.11;100.00;99773.80;4315192;80;41885;-73
2021/03/20 07:25:45;;;;;;;9.55;2.85;;;;;;;-1.88;100.00;99773.62;4323988;81;42692;-75
2021/03/20 07:31:53;;;;;;;7.13;3.00;;;;;;;-1.75;100.00;99782.63;4325490;81;28606;-74
2021/03/20 07:38:13;;;;;;;7.53;3.12;;;;;;;-1.71;100.00;99786.19;4352470;81;42526;-76
2021/03/20 07:44:16;;;;;;;8.03;3.27;;;;;;;-1.79;100.00;99798.34;4354008;80;42717;-74
2021/03/20 07:50:24;;;;;;;8.18;3.27;;;;;;;-1.58;100.00;99800.94;4320972;80;42704;-75
2021/03/20 07:56:36;;;;;;;6.85;2.65;;;;;;;-1.31;100.00;99794.19;4321742;80;41842;-82
2021/03/20 08:02:42;;;;;;;10.55;3.55;;;;;;;-1.18;100.00;99800.55;4329035;81;43605;-84
2021/03/20 08:08:46;;;;;;;10.32;3.22;;;;;;;-0.72;100.00;99804.84;4276024;83;43210;-84
2021/03/20 08:14:53;;;;;;;5.95;2.40;;;;;;;-0.53;100.00;99817.70;4236118;83;43429;-86
2021/03/20 08:21:22;;;;;;;4.53;2.20;;;;;;;-0.87;100.00;99821.10;4244407;84;43417;-84
2021/03/20 08:27:50;;;;;;;5.78;2.65;;;;;;;-0.78;100.00;99814.15;4205181;84;43487;-85
2021/03/20 08:34:29;;;;;;;9.70;3.22;;;;;;;-0.79;100.00;99829.65;4204157;83;42749;-87
2021/03/20 08:40:49;;;;;;;9.10;2.90;;;;;;;-0.89;100.00;99816.92;4350356;81;42710;-86
2021/03/20 08:47:24;;;;;;;6.72;2.60;;;;;;;-0.82;100.00;99815.41;4334390;80;42662;-82
2021/03/20 08:53:47;;;;;;;6.20;2.72;;;;;;;-0.60;100.00;99822.71;4329244;81;28550;-87
2021/03/20 08:59:53;;;;;;;4.50;1.75;;;;;;;-0.18;100.00;99837.41;4260098;81;43432;-87
2021/03/20 09:06:00;;;;;;;3.95;1.75;;;;;;;0.01;90.42;99829.09;4323719;80;43395;-84
2021/03/20 09:12:20;;;;;;;8.28;2.40;;;;;;;0.26;92.20;99837.74;4311963;82;41849;-83
2021/03/20 09:18:23;;;;;;;6.35;2.02;;;;;;;0.75;89.91;99836.68;4313497;80;43422;-84
2021/03/20 09:24:29;;;;;;;4.90;2.08;;;;;;;0.26;90.44;99848.33;4181224;84;43440;-83
2021/03/20 09:30:45;;;;;;;4.97;1.90;;;;;;;-0.08;89.67;99855.41;4189051;84;43390;-88
2021/03/20 09:36:49;;;;;;;3.50;1.75;;;;;;;0.10;92.20;99846.25;4163005;83;43439;-84
2021/03/20 09:42:52;;;;;;;5.12;1.80;;;;;;;0.41;78.68;99849.98;4186972;84;43413;-93
2021/03/20 09:48:56;;;;;;;4.30;1.75;;;;;;;0.52;78.97;99849.45;4166341;84;43410;-85
2021/03/20 09:55:32;;;;;;;5.30;1.82;;;;;;;0.22;74.97;99853.53;4360451;80;43446;-88
2021/03/20 10:01:47;;;;;;;4.85;1.42;;;;;;;0.73;62.40;99856.33;4331502;80;43238;-88
2021/03/20 10:08:00;;;;;;;4.13;1.60;;;;;;;1.16;62.96;99865.93;4342000;81;28556;-88
2021/03/20 10:14:33;;;;;;;6.15;2.50;;;;;;;1.76;62.22;99856.55;4228392;82;43416;-89
2021/03/20 10:20:48;;;;;;;4.92;1.85;;;;;;;2.16;78.04;99857.84;4195244;83;43429;-87
2021/03/20 10:27:06;;;;;;;4.20;1.95;;;;;;;2.33;65.83;99859.25;4204137;84;28547;-85
2021/03/20 10:33:17;;;;;;;6.25;2.10;;;;;;;2.63;68.79;99861.91;4220402;82;28564;-86
2021/03/20 10:39:28;;;;;;;5.22;2.12;;;;;;;2.43;61.46;99861.81;4263570;82;28604;-85
2021/03/20 10:45:41;;;;;;;5.30;2.12;;;;;;;2.39;68.86;99866.59;4277285;82;43440;-87
2021/03/20 10:51:48;;;;;;;10.25;2.65;;;;;;;2.41;67.46;99873.91;4257429;82;28561;-87
2021/03/20 10:57:52;;;;;;;6.40;2.85;;;;;;;2.11;71.03;99869.41;4277453;82;28605;-86
2021/03/20 11:03:54;;;;;;;8.38;3.70;;;;;;;2.00;69.63;99874.96;4246042;82;28556;-87
2021/03/20 11:10:10;;;;;;;6.80;3.22;;;;;;;1.82;75.22;99867.85;4270037;82;28598;-86
2021/03/20 11:16:23;;;;;;;4.85;2.58;;;;;;;1.49;68.32;99870.23;4270362;82;28620;-87
2021/03/20 11:22:34;;;;;;;7.95;3.22;;;;;;;2.06;65.79;99876.50;4255926;82;28604;-83
2021/03/20 11:28:37;;;;;;;8.88;3.55;;;;;;;2.33;65.24;99874.70;4247092;82;28602;-87
2021/03/20 11:34:41;;;;;;;6.87;3.02;;;;;;;2.83;64.01;99856.84;4227691;82;28617;-86
2021/03/20 11:40:48;;;;;;;6.30;2.87;;;;;;;2.84;57.04;99855.84;4189610;84;28645;-87
2021/03/20 11:46:55;;;;;;;9.75;3.67;;;;;;;2.79;54.06;99857.65;4185899;84;28595;-85
2021/03/20 11:53:27;;;;;;;8.63;3.70;;;;;;;3.10;56.71;99846.97;4173970;84;28601;-88
2021/03/20 11:59:45;;;;;;;9.43;3.85;;;;;;;2.96;57.11;99839.94;4182334;84;28611;-88
2021/03/20 12:05:55;;;;;;;11.08;4.78;;;;;;;3.14;58.17;99837.67;4191011;84;28644;-89
2021/03/20 12:11:57;;;;;;;13.10;5.03;;;;;;;2.68;63.48;99835.37;4191558;84;28629;-88
2021/03/20 12:18:17;;;;;;;9.68;3.87;;;;;;;2.72;62.72;99831.42;4188513;84;28546;-88
2021/03/20 12:24:34;;;;;;;12.58;4.30;;;;;;;2.70;62.25;99828.91;4182987;84;28541;-89
2021/03/20 12:30:36;;;;;;;11.68;4.53;;;;;;;2.90;60.42;99825.48;4172889;84;28611;-86
2021/03/20 12:36:48;;;;;;;10.15;4.25;;;;;;;2.91;61.71;99819.17;4170533;83;43242;-88
2021/03/20 12:42:51;;;;;;;11.43;4.22;;;;;;;2.89;60.08;99815.04;4189998;83;28612;-88
2021/03/20 12:48:53;;;;;;;9.80;4.28;;;;;;;2.76;58.74;99816.81;4199571;84;28596;-87
2021/03/20 12:54:57;;;;;;;10.03;4.30;;;;;;;3.12;58.47;99806.45;4208991;84;28584;-86
2021/03/20 13:01:01;;;;;;;9.48;4.65;;;;;;;2.83;58.76;99806.38;4175003;84;28549;-87
2021/03/20 13:07:03;;;;;;;10.63;4.60;;;;;;;2.63;57.47;99807.48;4196956;84;28569;-89
2021/03/20 13:13:07;;;;;;;9.70;4.35;;;;;;;2.43;57.04;99809.54;4177440;84;28555;-91
2021/03/20 13:19:09;;;;;;;9.78;3.95;;;;;;;2.04;56.61;99802.06;4189008;84;28586;-90
2021/03/20 13:25:28;;;;;;;11.63;4.45;;;;;;;2.50;55.89;99803.13;4178378;84;28702;-88
2021/03/20 13:31:31;;;;;;;8.30;3.83;;;;;;;1.87;58.47;99818.33;4196082;84;28570;-87
2021/03/20 13:37:33;;;;;;;11.63;3.80;;;;;;;1.50;61.89;99813.11;4240664;82;43224;-88
2021/03/20 13:43:36;;;;;;;7.92;3.00;;;;;;;2.15;61.83;99811.08;4259636;82;28612;-87
2021/03/20 13:49:38;;;;;;;8.90;4.10;;;;;;;1.98;57.89;99808.83;4269165;82;28620;-87
2021/03/20 13:55:42;;;;;;;9.35;4.12;;;;;;;1.95;57.24;99809.11;4274497;82;28595;-87
2021/03/20 14:01:44;;;;;;;8.70;3.77;;;;;;;1.69;57.87;99804.64;4274713;81;28634;-88
2021/03/20 14:07:48;;;;;;;11.97;4.47;;;;;;;1.76;59.41;99800.36;4279736;81;28601;-83
2021/03/20 14:13:51;;;;;;;9.88;3.72;;;;;;;1.83;55.30;99799.28;4265724;81;28572;-90
2021/03/20 14:19:54;;;;;;;9.30;4.12;;;;;;;2.35;58.08;99791.77;4208579;82;28564;-88
2021/03/20 14:25:59;;;;;;;9.23;3.80;;;;;;;2.15;52.04;99793.83;4325674;80;28586;-89
2021/03/20 14:32:06;;;;;;;9.30;4.08;;;;;;;2.71;50.39;99784.59;4331574;80;28601;-90
2021/03/20 14:38:10;;;;;;;7.83;2.95;;;;;;;2.79;52.75;99777.98;4288442;82;28571;-84
2021/03/20 14:44:12;;;;;;;7.78;3.35;;;;;;;2.81;49.04;99773.84;4321902;82;28593;-81
2021/03/20 14:50:21;;;;;;;10.72;4.15;;;;;;;2.36;49.40;99776.69;4288179;82;28550;-90
2021/03/20 14:56:24;;;;;;;7.58;3.67;;;;;;;1.88;48.16;99782.39;4309996;82;28544;-88
2021/03/20 15:02:26;;;;;;;9.58;3.42;;;;;;;2.03;49.33;99777.82;4175633;83;28616;-88
2021/03/20 15:08:31;;;;;;;9.10;3.17;;;;;;;1.65;49.36;99771.45;4232164;83;28551;-88
2021/03/20 15:14:35;;;;;;;6.50;2.42;;;;;;;1.98;49.29;99768.19;4288463;82;28544;-89
2021/03/20 15:20:41;;;;;;;9.35;3.33;;;;;;;2.37;47.77;99752.62;4315910;82;28562;-90
2021/03/20 15:26:46;;;;;;;7.83;2.98;;;;;;;1.83;45.91;99758.66;4312605;81;28580;-86
2021/03/20 15:32:49;;;;;;;6.25;3.27;;;;;;;2.07;47.18;99759.30;4335853;80;28601;-87
2021/03/20 15:38:52;;;;;;;8.45;2.70;;;;;;;1.84;47.78;99753.20;4337337;81;28556;-88
2021/03/20 15:44:54;;;;;;;7.17;3.20;;;;;;;2.04;48.93;99752.98;4319847;80;28587;-86
2021/03/20 15:51:04;;;;;;;7.40;3.20;;;;;;;1.96;48.59;99748.45;4321472;80;28555;-86
2021/03/20 15:57:07;;;;;;;9.50;4.00;;;;;;;1.83;48.85;99748.89;4343810;80;28595;-84
2021/03/20 16:03:09;;;;;;;9.10;3.25;;;;;;;1.86;50.57;99756.52;4325443;80;28575;-82
2021/03/20 16:09:12;;;;;;;10.15;3.77;;;;;;;1.43;48.50;99763.02;4314813;81;43234;-87
2021/03/20 16:15:20;;;;;;;10.45;3.72;;;;;;;1.29;49.61;99761.73;4317394;80;43312;-85
2021/03/20 16:21:25;;;;;;;9.78;3.40;;;;;;;1.20;49.96;99766.66;4334740;80;42716;-88
2021/03/20 16:27:29;;;;;;;9.78;3.98;;;;;;;1.03;49.77;99762.52;4292514;80;42721;-87
2021/03/20 16:33:33;;;;;;;10.78;3.92;;;;;;;0.97;49.50;99759.13;4326159;80;43280;-84
2021/03/20 16:39:35;;;;;;;11.33;4.00;;;;;;;0.66;50.65;99761.65;4321289;80;43312;-83
2021/03/20 16:45:43;;;;;;;10.45;4.53;;;;;;;0.80;53.71;99748.87;4331336;80;43238;-85
2021/03/20 16:51:47;;;;;;;9.05;4.15;;;;;;;0.67;51.71;99745.27;4317701;80;42729;-82
2021/03/20 16:57:51;;;;;;;9.85;4.40;;;;;;;0.63;51.21;99759.78;4339184;81;43268;-80
2021/03/20 17:03:54;;;;;;;8.68;4.15;;;;;;;0.79;52.89;99753.36;4325086;81;42737;-90
2021/03/20 17:10:06;;;;;;;10.23;4.45;;;;;;;0.72;51.57;99758.90;4346459;81;43240;-90
2021/03/20 17:16:17;;;;;;;8.58;3.67;;;;;;;0.47;52.01;99745.88;4316847;81;42770;-87
2021/03/20 17:22:19;;;;;;;;;;;;;;;0.45;50.89;99757.92;4342911;81;28548;-83
2021/03/20 17:28:30;;;;;;;14.68;5.90;;;;;;;0.46;53.46;99746.87;4331457;80;43908;-86
2021/03/20 17:40:56;;;;;;;14.03;5.97;;;;;;;0.23;54.74;99755.20;4599076;76;70704;-88
2021/03/20 17:46:59;;;;;;;13.45;6.30;;;;;;;0.19;56.25;99761.27;4479098;78;43916;-88
2021/03/20 17:53:04;;;;;;;15.38;6.50;;;;;;;-0.04;56.86;99771.36;4469992;78;43904;-89
2021/03/20 17:59:09;;;;;;;13.30;5.53;;;;;;;-0.31;56.74;99773.80;4455392;78;28610;-89
2021/03/20 18:05:13;;;;;;;14.83;6.62;;;;;;;-0.26;57.03;99765.91;4504114;78;43904;-83
2021/03/20 18:11:17;;;;;;;19.42;6.83;;;;;;;-0.27;58.04;99765.57;4387269;80;43903;-84
2021/03/20 18:17:25;;;;;;;16.25;6.45;;;;;;;-0.46;58.63;99752.27;4340848;80;43960;-90
2021/03/20 18:23:24;;;;;;;15.70;7.00;;;;;;;-0.79;58.44;99756.19;4337803;80;28594;-90
2021/03/20 18:29:26;;;;;;;16.45;6.90;;;;;;;-0.89;59.13;99750.92;4345902;80;43924;-81
2021/03/20 18:35:31;;;;;;;18.85;6.75;;;;;;;-1.03;59.49;99750.84;4333510;80;43923;-81
2021/03/20 18:41:33;;;;;;;14.05;6.28;;;;;;;-1.01;59.24;99755.02;4334995;81;43973;-87
2021/03/20 18:47:36;;;;;;;15.13;6.17;;;;;;;-1.08;59.20;99759.17;4402182;78;43942;-86
2021/03/20 18:53:40;;;;;;;16.32;5.83;;;;;;;-1.07;60.22;99757.37;4312561;81;43962;-86
2021/03/20 18:59:43;;;;;;;19.15;7.35;;;;;;;-1.30;60.13;99770.33;4344922;81;43907;-80
2021/03/20 19:05:48;;;;;;;15.65;6.17;;;;;;;-1.00;61.24;99767.24;4334398;80;43927;-85
2021/03/20 19:11:51;;;;;;;18.50;7.67;;;;;;;-0.92;60.44;99759.94;4364318;80;43942;-86
2021/03/20 19:17:53;;;;;;;18.75;7.22;;;;;;;-0.96;61.97;99759.03;4363817;80;43915;-81
2021/03/20 19:23:55;;;;;;;18.35;7.00;;;;;;;-1.00;61.35;99762.43;4375264;80;43910;-85
2021/03/20 19:29:58;;;;;;;17.40;6.75;;;;;;;-1.20;60.87;99754.49;4338400;80;43910;-88
2021/03/20 19:36:00;;;;;;;18.07;7.72;;;;;;;-1.23;60.86;99756.09;4356241;80;43930;-84
2021/03/20 19:42:04;;;;;;;21.33;8.45;;;;;;;-1.17;61.51;99756.87;4364170;80;43918;-86
2021/03/20 19:48:08;;;;;;;20.27;8.10;;;;;;;-1.21;62.16;99755.47;4354043;81;43907;-85
2021/03/20 19:54:11;;;;;;;21.80;8.60;;;;;;;-1.34;67.31;99747.83;4349568;81;28560;-87
2021/03/20 20:00:15;;;;;;;26.25;10.68;;;;;;;-1.50;66.19;99748.83;4359402;80;43209;-90
2021/03/20 20:06:21;;;;;;;24.37;10.77;;;;;;;-1.59;66.60;99752.62;4331696;81;34416;-89
2021/03/20 20:12:23;;;;;;;;;;;;;;;-1.65;66.46;99745.73;4373993;80;28630;-84
2021/03/20 20:18:30;;;;;;;28.15;10.08;;;;;;;-1.85;69.30;99738.61;4342623;81;43398;-87
2021/03/20 20:24:36;;;;;;;;;;;;;;;-1.95;68.51;99739.05;4344446;80;28561;-89
2021/03/20 20:30:39;;;;;;;20.80;9.28;;;;;;;-2.08;72.16;99739.27;4357815;81;43919;-86
2021/03/20 20:36:41;;;;;;;24.60;9.73;;;;;;;-2.28;76.16;99735.22;4345343;80;28582;-86
2021/03/20 20:42:45;;;;;;;22.10;9.43;;;;;;;-2.45;75.70;99726.58;4402959;79;43902;-84
2021/03/20 20:48:47;;;;;;;28.73;9.93;;;;;;;-2.55;77.46;99726.07;4396459;80;43382;-94
2021/03/20 20:54:50;;;;;;;23.87;9.38;;;;;;;-2.58;75.66;99726.80;4304272;81;43941;-89
2021/03/20 21:00:56;;;;;;;28.73;10.20;;;;;;;-2.71;76.86;99718.63;4386884;81;43422;-88
2021/03/20 21:06:56;;;;;;;22.95;9.00;;;;;;;-2.75;76.92;99721.64;4398545;80;43905;-91
2021/03/20 21:13:03;;;;;;;25.57;10.35;;;;;;;-2.90;79.72;99715.85;4392367;80;43138;-92
2021/03/20 21:19:16;;;;;;;31.07;12.07;;;;;;;-3.01;81.06;99715.41;4336879;81;43418;-90
2021/03/20 21:25:24;;;;;;;30.77;11.73;;;;;;;-3.01;80.26;99708.83;4362000;79;28571;-90
2021/03/20 21:31:32;;;;;;;30.15;12.20;;;;;;;-3.07;81.05;99715.44;4416127;79;43405;-88
2021/03/20 21:37:37;;;;;;;32.20;12.45;;;;;;;-3.16;81.62;99712.23;4387353;80;43758;-89
2021/03/20 21:43:56;;;;;;;34.03;12.47;;;;;;;-3.23;84.32;99710.13;4367932;81;34929;-91
2021/03/20 21:50:13;;;;;;;33.90;13.13;;;;;;;-3.29;81.00;99707.14;4364654;80;44143;-88
2021/03/20 21:56:36;;;;;;;36.85;14.03;;;;;;;-3.28;82.66;99694.34;4616949;76;86875;-90
2021/03/20 22:02:48;;;;;;;37.08;13.38;;;;;;;-3.46;83.10;99697.53;4460488;78;44491;-91
2021/03/20 22:10:01;;;;;;;34.95;12.80;;;;;;;-3.49;85.45;99691.18;4589505;76;87193;-88
2021/03/20 22:27:08;;;;;;;45.33;14.40;;;;;;;-3.69;88.48;99681.81;4483288;78;83020;-86
2021/03/20 22:33:12;;;;;;;43.92;14.43;;;;;;;-3.81;88.18;99681.45;4392484;79;44472;-85
2021/03/20 22:39:14;;;;;;;45.50;15.23;;;;;;;-3.81;86.25;99679.68;4374789;79;43232;-84
2021/03/20 22:45:18;;;;;;;45.70;16.40;;;;;;;-3.86;89.54;99667.38;4405232;80;43741;-83
2021/03/20 22:51:22;;;;;;;50.95;17.75;;;;;;;-3.87;91.52;99660.95;4399438;79;28645;-85
2021/03/20 22:57:24;;;;;;;50.05;17.07;;;;;;;-3.99;90.64;99646.98;4421572;79;43737;-87
2021/03/20 23:03:31;;;;;;;53.25;18.50;;;;;;;-4.07;94.74;99641.85;4406366;81;44340;-86
2021/03/20 23:09:34;;;;;;;49.27;18.77;;;;;;;-4.07;95.22;99641.03;4408295;79;43788;-87
2021/03/20 23:15:36;;;;;;;53.17;19.48;;;;;;;-4.13;97.43;99638.41;4405904;80;44197;-87
2021/03/20 23:21:38;;;;;;;55.03;18.87;;;;;;;-4.18;99.96;99629.23;4401684;81;44093;-86
2021/03/20 23:27:41;;;;;;;54.88;19.32;;;;;;;-4.30;100.00;99634.50;4251668;82;44093;-87
2021/03/20 23:33:43;;;;;;;50.65;19.12;;;;;;;-4.27;98.90;99635.56;4319744;81;43833;-87
2021/03/20 23:39:45;;;;;;;52.70;19.95;;;;;;;-4.26;97.88;99631.16;4290373;81;44093;-88
2021/03/20 23:45:48;;;;;;;48.68;17.48;;;;;;;-4.38;99.85;99619.81;4307552;81;44055;-88
2021/03/20 23:51:50;;;;;;;52.03;18.12;;;;;;;-4.47;99.96;99610.88;4321373;81;43755;-87
2021/03/20 23:57:53;;;;;;;51.70;18.32;;;;;;;-4.37;97.69;99594.77;4324713;81;43922;-87
